Time;durP1;ratioP1;P1;durP2;ratioP2;P2;SDS_P1;SDS_P2;PMS_P1;PMS_P2;Temp;Humidity;BMP_temperature;BMP_pressure;BME280_temperature;BME280_humidity;BME280_pressure;Samples;Min_cycle;Max_cycle;Signal;HPM_P1;HPM_P2
2022/05/31 00:11:12;;;;;;;20.75;13.28;;;;;;;7.13;90.52;100234.28;1748715;81;25909;-68
2022/05/31 00:13:39;;;;;;;15.95;13.15;;;;;;;7.09;90.74;100239.44;1720960;82;27332;-68
2022/05/31 00:16:06;;;;;;;17.48;13.90;;;;;;;7.08;90.67;100239.20;1735535;81;25407;-67
2022/05/31 00:18:32;;;;;;;20.43;14.10;;;;;;;7.06;90.65;100237.87;1724932;82;25737;-67
2022/05/31 00:21:00;;;;;;;18.02;13.65;;;;;;;7.05;90.70;100232.25;1723075;82;25407;-68
2022/05/31 00:23:26;;;;;;;20.45;14.35;;;;;;;7.03;90.64;100229.84;1731354;81;25634;-68
2022/05/31 00:25:52;;;;;;;15.28;13.22;;;;;;;7.03;90.73;100238.44;1729193;82;27405;-68
2022/05/31 00:28:18;;;;;;;17.02;12.98;;;;;;;7.01;90.77;100234.69;1725655;81;33073;-68
2022/05/31 00:30:45;;;;;;;22.75;13.75;;;;;;;7.01;90.68;100240.06;1733590;82;25591;-67
2022/05/31 00:33:11;;;;;;;17.10;12.78;;;;;;;7.00;90.68;100234.97;1724852;82;25426;-68
2022/05/31 00:35:41;;;;;;;17.50;13.60;;;;;;;6.98;90.64;100240.66;1730014;81;25424;-68
2022/05/31 00:38:09;;;;;;;16.50;13.13;;;;;;;6.98;90.73;100247.91;1730666;82;27362;-68
2022/05/31 00:40:37;;;;;;;21.85;14.05;;;;;;;6.97;90.79;100250.36;1736078;81;25414;-68
2022/05/31 00:43:11;;;;;;;19.85;13.98;;;;;;;6.95;90.90;100249.30;1741905;81;25546;-67
2022/05/31 00:45:58;;;;;;;14.65;12.23;;;;;;;6.94;90.90;100251.71;1726897;81;26171;-67
2022/05/31 00:48:30;;;;;;;14.30;11.88;;;;;;;6.91;90.73;100255.79;1736249;82;25696;-69
2022/05/31 00:51:01;;;;;;;17.85;12.43;;;;;;;6.89;90.60;100258.48;1733156;82;27333;-69
2022/05/31 00:53:32;;;;;;;17.35;12.85;;;;;;;6.86;90.57;100253.67;1746199;80;25772;-67
2022/05/31 00:56:12;;;;;;;18.07;13.08;;;;;;;6.84;90.67;100258.54;1725278;82;25673;-68
2022/05/31 00:58:44;;;;;;;14.15;12.25;;;;;;;6.82;90.64;100256.69;1733803;81;25626;-68
2022/05/31 01:01:15;;;;;;;16.15;12.63;;;;;;;6.80;90.83;100254.83;1724995;82;25756;-68
2022/05/31 01:03:43;;;;;;;14.18;12.07;;;;;;;6.77;90.76;100252.16;1736381;82;26647;-68
2022/05/31 01:06:13;;;;;;;16.95;13.28;;;;;;;6.74;90.56;100252.71;1736289;81;25781;-68
2022/05/31 01:08:45;;;;;;;14.45;12.37;;;;;;;6.72;90.52;100253.03;1726084;81;25494;-68
2022/05/31 01:11:17;;;;;;;16.35;13.03;;;;;;;6.71;90.53;100258.13;1732489;81;25771;-67
2022/05/31 01:13:44;;;;;;;14.83;11.38;;;;;;;6.68;90.37;100253.31;1720133;83;25672;-68
2022/05/31 01:16:13;;;;;;;15.60;12.53;;;;;;;6.66;90.18;100254.70;1720856;83;27343;-68
2022/05/31 01:18:40;;;;;;;14.33;12.33;;;;;;;6.64;90.37;100259.53;1733859;82;28167;-68
2022/05/31 01:21:08;;;;;;;16.87;12.78;;;;;;;6.60;90.47;100260.64;1724467;82;25946;-67
2022/05/31 01:24:09;;;;;;;15.60;12.33;;;;;;;6.56;90.44;100260.17;1730461;81;25409;-67
2022/05/31 01:26:50;;;;;;;15.98;12.65;;;;;;;6.53;90.56;100267.69;1721574;83;25565;-68
2022/05/31 01:29:33;;;;;;;14.38;12.07;;;;;;;6.51;90.90;100266.38;1717041;83;27532;-69
2022/05/31 01:32:08;;;;;;;15.65;13.50;;;;;;;6.50;90.99;100275.00;1720767;83;25489;-66
2022/05/31 01:34:48;;;;;;;17.15;13.08;;;;;;;6.48;91.16;100273.66;1733520;82;25582;-67
2022/05/31 01:37:14;;;;;;;17.02;12.90;;;;;;;6.46;91.24;100283.89;1744092;81;25662;-67
2022/05/31 01:40:00;;;;;;;15.48;13.00;;;;;;;6.45;91.11;100286.31;1730096;81;32466;-68
2022/05/31 01:42:37;;;;;;;21.57;13.35;;;;;;;6.43;91.04;100290.61;1732518;82;29534;-68
2022/05/31 01:45:11;;;;;;;18.12;12.78;;;;;;;6.41;91.00;100293.34;1745130;82;25683;-68
2022/05/31 01:47:38;;;;;;;16.50;13.25;;;;;;;6.38;90.93;100300.06;1730191;81;25418;-68
2022/05/31 01:50:10;;;;;;;17.05;12.70;;;;;;;6.34;91.00;100299.82;1730478;82;26202;-68
2022/05/31 01:52:36;;;;;;;16.87;12.95;;;;;;;6.32;91.00;100304.68;1711999;82;25709;-68
2022/05/31 01:55:04;;;;;;;16.12;13.70;;;;;;;6.31;90.96;100299.58;1687402;83;27392;-68
2022/05/31 01:57:32;;;;;;;18.73;13.68;;;;;;;6.27;90.98;100299.89;1743089;81;25417;-68
2022/05/31 02:00:11;;;;;;;17.92;13.38;;;;;;;6.26;91.14;100303.09;1736390;82;25633;-68
2022/05/31 02:02:37;;;;;;;20.75;14.07;;;;;;;6.24;91.15;100310.64;1724101;81;26022;-68
2022/05/31 02:05:06;;;;;;;17.45;14.13;;;;;;;6.24;91.12;100312.53;1733565;82;25709;-68
2022/05/31 02:07:33;;;;;;;17.00;13.95;;;;;;;6.23;91.38;100309.58;1727125;82;27492;-68
2022/05/31 02:10:00;;;;;;;18.25;14.35;;;;;;;6.22;91.41;100312.02;1727646;81;25783;-68
2022/05/31 02:12:30;;;;;;;18.12;13.28;;;;;;;6.20;91.43;100310.95;1721390;82;25645;-68
2022/05/31 02:14:58;;;;;;;17.85;14.20;;;;;;;6.20;91.66;100313.63;1744640;82;25463;-69
2022/05/31 02:17:25;;;;;;;19.90;14.10;;;;;;;6.19;91.46;100310.67;1731453;82;25664;-68
2022/05/31 02:19:51;;;;;;;17.62;13.30;;;;;;;6.19;91.21;100313.91;1721450;82;28227;-69
2022/05/31 02:22:22;;;;;;;21.02;14.30;;;;;;;6.16;91.19;100308.55;1738914;82;25716;-69
2022/05/31 02:24:49;;;;;;;18.92;14.55;;;;;;;6.17;91.22;100310.16;1746163;82;25937;-68
2022/05/31 02:27:15;;;;;;;19.82;14.87;;;;;;;6.15;91.26;100310.98;1736297;81;25465;-68
2022/05/31 02:29:42;;;;;;;18.95;14.98;;;;;;;6.14;91.33;100316.08;1729931;82;25411;-68
2022/05/31 02:32:12;;;;;;;19.23;13.93;;;;;;;6.12;91.42;100312.88;1730850;82;27406;-68
2022/05/31 02:34:46;;;;;;;17.60;14.28;;;;;;;6.11;91.44;100317.45;1723764;82;25279;-68
2022/05/31 02:37:14;;;;;;;21.82;15.70;;;;;;;6.11;91.46;100315.28;1725286;82;25688;-68
2022/05/31 02:39:41;;;;;;;20.02;14.80;;;;;;;6.09;91.58;100314.77;1729874;81;25357;-68
2022/05/31 02:42:09;;;;;;;20.37;14.68;;;;;;;6.08;91.58;100322.03;1730738;82;25565;-68
2022/05/31 02:44:36;;;;;;;18.98;14.90;;;;;;;6.08;91.81;100317.18;1724157;82;27512;-68
2022/05/31 02:47:04;;;;;;;19.90;15.50;;;;;;;6.08;91.81;100325.23;1721554;82;25413;-68
2022/05/31 02:49:31;;;;;;;17.65;14.15;;;;;;;6.08;91.80;100314.50;1721777;82;25674;-68
2022/05/31 02:51:59;;;;;;;18.90;15.38;;;;;;;6.07;91.80;100314.25;1727996;82;25635;-68
2022/05/31 02:54:27;;;;;;;17.75;15.20;;;;;;;6.07;91.96;100322.31;1732617;82;25685;-68
2022/05/31 02:56:54;;;;;;;22.48;16.12;;;;;;;6.08;92.13;100319.34;1723855;81;28129;-68
2022/05/31 02:59:20;;;;;;;18.90;14.80;;;;;;;6.08;92.38;100319.34;1731778;81;25504;-68
2022/05/31 03:01:49;;;;;;;22.32;16.35;;;;;;;6.09;92.55;100327.65;1721597;82;25724;-68
2022/05/31 03:04:16;;;;;;;21.13;15.53;;;;;;;6.11;92.60;100322.00;1721617;81;25623;-68
2022/05/31 03:06:43;;;;;;;20.55;15.95;;;;;;;6.11;92.77;100322.83;1734463;81;25396;-68
2022/05/31 03:09:11;;;;;;;19.75;16.12;;;;;;;6.14;92.86;100329.51;1732883;81;28447;-68
2022/05/31 03:11:51;;;;;;;21.50;16.37;;;;;;;6.16;93.10;100327.34;1727079;82;25648;-68
2022/05/31 03:14:41;;;;;;;21.55;16.77;;;;;;;6.18;93.15;100331.92;1733904;81;25529;-68
2022/05/31 03:17:25;;;;;;;18.23;16.02;;;;;;;6.21;93.21;100324.63;1742032;81;25478;-68
2022/05/31 03:20:24;;;;;;;21.60;16.17;;;;;;;6.24;93.18;100322.73;1734540;82;25474;-68
2022/05/31 03:22:58;;;;;;;21.48;16.82;;;;;;;6.27;93.21;100324.06;1723431;81;27565;-68
2022/05/31 03:25:27;;;;;;;24.57;16.12;;;;;;;6.31;93.35;100329.92;1737599;82;25415;-68
2022/05/31 03:27:58;;;;;;;22.17;18.13;;;;;;;6.33;93.35;100330.47;1734105;82;25630;-68
2022/05/31 03:30:25;;;;;;;20.75;17.40;;;;;;;6.35;93.64;100332.33;1733820;82;25672;-68
2022/05/31 03:32:53;;;;;;;24.02;17.92;;;;;;;6.38;93.57;100333.64;1727719;81;25573;-67
2022/05/31 03:35:19;;;;;;;23.10;17.90;;;;;;;6.42;93.73;100341.94;1707862;83;28057;-68
2022/05/31 03:37:45;;;;;;;21.42;17.35;;;;;;;6.45;93.98;100351.62;1710287;83;25586;-68
2022/05/31 03:40:56;;;;;;;22.58;17.70;;;;;;;6.50;94.05;100350.76;1717313;82;25568;-68
2022/05/31 03:42:40;;;;;;;23.90;16.97;;;;;;;6.52;94.24;100356.65;1720200;82;26274;-68
2022/05/31 03:45:09;;;;;;;20.15;16.32;;;;;;;6.55;94.45;100356.09;1738384;82;32467;-68
2022/05/31 03:47:35;;;;;;;25.77;17.95;;;;;;;6.59;94.58;100355.81;1733892;81;27394;-68
2022/05/31 03:50:01;;;;;;;22.37;17.07;;;;;;;6.64;94.75;100361.15;1737125;82;33132;-69
2022/05/31 03:52:27;;;;;;;22.87;19.15;;;;;;;6.69;94.92;100360.28;1724510;82;29781;-68
2022/05/31 03:54:53;;;;;;;24.55;18.32;;;;;;;6.72;95.20;100359.21;1737844;82;25675;-68
2022/05/31 03:57:21;;;;;;;24.15;18.62;;;;;;;6.79;95.25;100368.27;1735611;81;32362;-68
2022/05/31 03:59:47;;;;;;;30.27;21.82;;;;;;;6.85;95.53;100362.33;1739539;81;27317;-68
2022/05/31 04:02:13;;;;;;;23.47;17.57;;;;;;;6.90;95.58;100372.48;1727919;82;33539;-69
2022/05/31 04:04:39;;;;;;;24.27;18.62;;;;;;;6.98;95.83;100372.44;1731899;82;25467;-68
2022/05/31 04:07:05;;;;;;;27.95;20.27;;;;;;;7.03;95.91;100366.19;1738170;81;35361;-68
2022/05/31 04:09:31;;;;;;;25.57;19.23;;;;;;;7.09;95.81;100369.89;1733829;82;25395;-68
2022/05/31 04:11:59;;;;;;;27.27;19.50;;;;;;;7.16;96.04;100369.56;1736838;82;27353;-68
2022/05/31 04:14:25;;;;;;;27.02;21.35;;;;;;;7.24;96.28;100373.54;1724389;82;25673;-68
2022/05/31 04:16:51;;;;;;;25.72;19.98;;;;;;;7.30;96.17;100376.42;1728748;82;30237;-68
2022/05/31 04:19:17;;;;;;;24.95;18.65;;;;;;;7.38;96.36;100383.88;1732030;82;25777;-68
2022/05/31 04:21:43;;;;;;;30.57;20.10;;;;;;;7.44;96.50;100386.78;1728225;82;32449;-68
2022/05/31 04:24:09;;;;;;;25.40;18.85;;;;;;;7.50;96.44;100387.52;1726753;82;27302;-68
2022/05/31 04:26:41;;;;;;;26.02;20.32;;;;;;;7.56;96.46;100394.46;1733499;82;25737;-68
2022/05/31 04:29:07;;;;;;;27.55;20.30;;;;;;;7.62;96.58;100387.91;1744152;82;25707;-68
2022/05/31 04:31:34;;;;;;;23.65;19.23;;;;;;;7.69;96.43;100394.86;1730200;81;35248;-69
2022/05/31 04:34:00;;;;;;;22.58;19.00;;;;;;;7.75;96.54;100398.55;1729858;82;25408;-68
2022/05/31 04:36:26;;;;;;;26.52;19.90;;;;;;;7.82;96.43;100406.28;1736000;82;27442;-67
2022/05/31 04:38:52;;;;;;;26.15;20.02;;;;;;;7.88;96.52;100407.81;1736066;82;25762;-68
2022/05/31 04:41:23;;;;;;;28.55;19.90;;;;;;;7.95;96.45;100398.04;1732157;82;25411;-68
2022/05/31 04:43:53;;;;;;;22.60;19.32;;;;;;;8.00;96.49;100405.53;1729233;81;25688;-67
2022/05/31 04:46:23;;;;;;;25.97;19.85;;;;;;;8.07;96.52;100403.83;1736608;82;25964;-69
2022/05/31 04:48:50;;;;;;;20.57;18.25;;;;;;;8.14;96.51;100400.23;1734741;81;27315;-67
2022/05/31 04:51:16;;;;;;;23.47;18.10;;;;;;;8.20;96.17;100405.79;1725395;82;25643;-69
2022/05/31 04:53:43;;;;;;;23.92;18.77;;;;;;;8.27;96.12;100404.64;1736220;81;25477;-67
2022/05/31 04:56:17;;;;;;;26.12;18.77;;;;;;;8.35;96.35;100404.00;1726565;81;25701;-67
2022/05/31 04:58:42;;;;;;;23.85;17.87;;;;;;;8.41;96.33;100409.55;1733512;82;25494;-68
2022/05/31 05:01:10;;;;;;;21.15;17.37;;;;;;;8.52;96.69;100415.09;1721371;83;29632;-69
2022/05/31 05:03:37;;;;;;;22.40;18.00;;;;;;;8.59;96.47;100410.69;1731233;82;25636;-69
2022/05/31 05:06:07;;;;;;;18.57;16.57;;;;;;;8.69;96.58;100411.88;1740426;82;25445;-68
2022/05/31 05:08:35;;;;;;;20.40;17.25;;;;;;;8.78;96.46;100410.66;1724180;82;25668;-68
2022/05/31 05:11:05;;;;;;;20.90;16.17;;;;;;;8.88;96.64;100409.70;1720881;82;25623;-69
2022/05/31 05:13:32;;;;;;;20.62;16.67;;;;;;;8.96;96.44;100411.73;1740581;82;27330;-67
2022/05/31 05:16:00;;;;;;;26.37;18.80;;;;;;;9.05;96.18;100409.95;1736803;81;25711;-68
2022/05/31 05:18:28;;;;;;;22.90;15.90;;;;;;;9.16;96.50;100406.55;1735115;82;25655;-68
2022/05/31 05:20:54;;;;;;;21.15;15.93;;;;;;;9.29;96.65;100413.85;1738386;82;25685;-67
2022/05/31 05:23:20;;;;;;;19.20;14.95;;;;;;;9.40;96.70;100410.44;1735537;81;25665;-67
2022/05/31 05:25:52;;;;;;;17.52;15.63;;;;;;;9.53;96.87;100414.24;1736680;82;28148;-67
2022/05/31 05:31:05;;;;;;;15.95;14.28;;;;;;;9.77;96.02;100425.41;1718790;82;25564;-69
2022/05/31 05:33:33;;;;;;;18.92;13.60;;;;;;;9.88;95.49;100420.86;1740028;82;25643;-69
2022/05/31 05:35:59;;;;;;;15.70;13.43;;;;;;;10.00;95.79;100420.36;1736826;82;25703;-68
2022/05/31 05:38:27;;;;;;;17.23;13.70;;;;;;;10.17;96.05;100427.05;1724675;82;26857;-70
2022/05/31 05:43:17;;;;;;;17.73;13.32;;;;;;;10.53;95.40;100424.39;1902720;74;35107;-69
2022/05/31 05:45:45;;;;;;;14.07;12.23;;;;;;;10.61;95.20;100420.96;1846139;77;25372;-69
2022/05/31 05:48:11;;;;;;;17.98;13.10;;;;;;;10.76;94.90;100421.70;1844976;77;27727;-69
2022/05/31 05:50:38;;;;;;;13.43;12.00;;;;;;;10.92;94.60;100424.86;1842954;77;26052;-68
2022/05/31 05:53:08;;;;;;;14.53;10.50;;;;;;;11.06;93.25;100430.20;1860112;77;25561;-68
2022/05/31 05:55:39;;;;;;;13.20;11.22;;;;;;;11.16;91.71;100434.01;1785764;80;25672;-69
2022/05/31 05:58:08;;;;;;;31.95;18.73;;;;;;;11.26;91.19;100424.84;1810789;78;25688;-69
2022/05/31 06:00:47;;;;;;;14.25;10.23;;;;;;;11.42;92.24;100428.73;1799310;79;27508;-69
2022/05/31 06:03:22;;;;;;;13.60;9.85;;;;;;;11.60;91.97;100433.69;1789530;79;25518;-69
2022/05/31 06:05:48;;;;;;;13.10;9.55;;;;;;;11.75;90.93;100435.19;1804754;79;25419;-68
2022/05/31 06:08:32;;;;;;;11.78;9.73;;;;;;;11.89;91.08;100435.86;1802783;79;25543;-68
2022/05/31 06:11:08;;;;;;;12.03;9.18;;;;;;;12.01;89.13;100441.28;1783651;80;25552;-68
2022/05/31 06:13:43;;;;;;;11.03;8.55;;;;;;;12.17;88.76;100447.05;1780968;80;27489;-68
2022/05/31 06:16:10;;;;;;;9.20;8.38;;;;;;;12.30;87.88;100436.06;1782554;80;25932;-68
2022/05/31 06:18:42;;;;;;;15.48;9.28;;;;;;;12.50;88.64;100442.00;1785821;80;25431;-68
2022/05/31 06:21:08;;;;;;;10.95;8.60;;;;;;;12.71;88.96;100440.80;1777217;80;25594;-68
2022/05/31 06:23:37;;;;;;;11.28;8.68;;;;;;;12.91;87.78;100439.94;1816431;78;25470;-68
2022/05/31 06:26:04;;;;;;;10.58;8.50;;;;;;;13.08;87.59;100437.98;1786272;80;27526;-68
2022/05/31 06:28:32;;;;;;;13.62;8.15;;;;;;;13.25;86.37;100439.86;1786290;80;25426;-68
2022/05/31 06:30:58;;;;;;;11.73;7.87;;;;;;;13.42;85.89;100446.42;1807869;79;25702;-67
2022/05/31 06:33:25;;;;;;;8.68;7.17;;;;;;;13.56;85.03;100436.13;1781572;80;27405;-68
2022/05/31 06:35:51;;;;;;;9.50;7.17;;;;;;;13.73;84.71;100437.19;1786669;80;25572;-68
2022/05/31 06:38:17;;;;;;;10.28;7.20;;;;;;;13.93;83.65;100443.25;1785346;80;27469;-67
2022/05/31 06:40:44;;;;;;;7.50;6.03;;;;;;;14.06;82.75;100448.20;1767678;79;25842;-68
2022/05/31 06:43:10;;;;;;;9.85;6.62;;;;;;;14.24;82.05;100443.47;1783467;79;25546;-68
2022/05/31 06:45:36;;;;;;;15.43;7.53;;;;;;;14.43;81.79;100436.80;1790961;79;25642;-69
2022/05/31 06:48:04;;;;;;;7.83;6.33;;;;;;;14.63;82.08;100439.32;1791477;79;25689;-69
2022/05/31 06:50:31;;;;;;;10.72;6.33;;;;;;;14.86;82.73;100430.22;1783043;79;27486;-69
2022/05/31 06:58:27;;;;;;;6.35;4.47;;;;;;;15.68;77.92;100445.86;1785401;79;25422;-67
2022/05/31 07:00:56;;;;;;;5.75;4.92;;;;;;;15.75;75.64;100446.14;1814434;79;25614;-68
2022/05/31 07:03:22;;;;;;;6.20;4.37;;;;;;;15.82;75.93;100444.22;1792221;79;27595;-67
2022/05/31 07:05:56;;;;;;;6.97;4.62;;;;;;;16.05;76.93;100443.95;1791702;79;26324;-67
2022/05/31 07:08:23;;;;;;;9.30;4.78;;;;;;;16.30;75.64;100447.25;1796652;79;25851;-68
2022/05/31 07:10:49;;;;;;;7.12;4.65;;;;;;;16.48;74.94;100447.22;1786664;79;25599;-70
2022/05/31 07:13:16;;;;;;;6.58;4.25;;;;;;;16.69;74.53;100456.59;1799020;79;25610;-70
2022/05/31 07:15:42;;;;;;;7.40;4.87;;;;;;;16.80;72.02;100448.14;1801552;79;27448;-69
2022/05/31 07:18:09;;;;;;;5.85;4.92;;;;;;;16.93;71.63;100451.64;1777394;80;25737;-68
2022/05/31 07:20:35;;;;;;;10.23;4.58;;;;;;;17.11;68.28;100458.16;1784085;80;25530;-69
2022/05/31 07:23:01;;;;;;;6.47;5.08;;;;;;;17.14;69.24;100459.61;1785907;79;25461;-69
2022/05/31 07:25:28;;;;;;;6.10;4.72;;;;;;;17.27;69.43;100454.11;1784818;80;25610;-68
2022/05/31 07:27:54;;;;;;;5.30;4.78;;;;;;;17.44;70.17;100456.50;1808729;79;28243;-67
2022/05/31 07:30:21;;;;;;;4.70;4.20;;;;;;;17.62;69.12;100462.44;1809438;79;25841;-68
2022/05/31 07:32:48;;;;;;;6.10;4.55;;;;;;;17.71;66.82;100456.78;1784129;80;25637;-68
2022/05/31 07:35:14;;;;;;;10.65;4.30;;;;;;;17.74;66.23;100461.53;1776075;80;26278;-67
2022/05/31 07:37:40;;;;;;;6.00;4.22;;;;;;;17.86;67.70;100462.85;1782509;80;25490;-66
2022/05/31 07:40:08;;;;;;;4.72;4.00;;;;;;;18.09;68.05;100453.99;1785127;80;27513;-67
2022/05/31 07:42:34;;;;;;;4.58;3.83;;;;;;;18.29;66.40;100456.99;1787661;80;25805;-67
2022/05/31 07:45:00;;;;;;;7.00;4.40;;;;;;;18.39;65.32;100458.39;1763388;80;25391;-68
2022/05/31 07:47:27;;;;;;;5.35;4.30;;;;;;;18.45;63.95;100465.16;1789555;79;25723;-68
2022/05/31 07:49:54;;;;;;;5.65;4.35;;;;;;;18.48;62.56;100456.81;1821202;78;25628;-67
2022/05/31 07:52:20;;;;;;;7.35;3.85;;;;;;;18.56;63.27;100452.27;1783523;79;27641;-67
2022/05/31 07:54:46;;;;;;;5.55;3.83;;;;;;;18.82;63.95;100462.05;1794174;78;25652;-68
2022/05/31 07:58:30;;;;;;;4.83;3.80;;;;;;;19.02;63.32;100462.05;1816316;78;25582;-68
2022/05/31 07:59:40;;;;;;;4.10;3.10;;;;;;;19.22;62.94;100453.20;1768804;80;26286;-66
2022/05/31 08:02:06;;;;;;;6.08;3.85;;;;;;;19.32;62.09;100464.16;1804197;78;25630;-66
2022/05/31 08:04:33;;;;;;;5.53;3.55;;;;;;;19.57;62.28;100460.48;1813081;78;28077;-67
2022/05/31 08:06:59;;;;;;;4.20;3.27;;;;;;;19.92;63.08;100447.96;1773631;80;25641;-66
2022/05/31 08:09:27;;;;;;;4.55;3.22;;;;;;;20.38;61.95;100452.55;1791866;80;25677;-67
2022/05/31 08:11:54;;;;;;;5.72;3.60;;;;;;;20.62;59.21;100459.55;1809176;78;25818;-67
2022/05/31 08:14:20;;;;;;;4.50;3.10;;;;;;;20.68;57.61;100453.92;1769407;80;25705;-67
2022/05/31 08:16:46;;;;;;;5.67;2.92;;;;;;;20.72;55.78;100456.70;1816454;78;27475;-67
2022/05/31 08:19:12;;;;;;;3.00;2.70;;;;;;;20.58;54.45;100446.89;1791715;80;25662;-67
2022/05/31 08:21:39;;;;;;;3.77;3.15;;;;;;;20.64;56.34;100454.47;1804777;78;25870;-68
2022/05/31 08:24:07;;;;;;;5.25;2.65;;;;;;;20.66;55.13;100454.10;1803464;78;25654;-67
2022/05/31 08:26:35;;;;;;;4.25;2.80;;;;;;;20.32;53.84;100447.94;1818314;78;25612;-67
2022/05/31 08:29:01;;;;;;;4.03;3.20;;;;;;;20.06;53.98;100454.24;1796789;78;25845;-68
2022/05/31 08:31:32;;;;;;;4.97;2.87;;;;;;;19.76;54.77;100456.91;1811389;78;25608;-66
2022/05/31 08:33:59;;;;;;;3.45;3.15;;;;;;;19.59;55.26;100456.80;1806442;78;25697;-68
2022/05/31 08:36:25;;;;;;;2.75;2.55;;;;;;;19.79;56.76;100452.06;1765624;79;25960;-68
2022/05/31 08:38:51;;;;;;;3.10;2.27;;;;;;;20.21;56.33;100453.87;1814976;78;25683;-68
2022/05/31 08:41:32;;;;;;;3.47;2.60;;;;;;;20.55;53.40;100457.25;1809276;78;27527;-68
2022/05/31 08:44:06;;;;;;;3.22;2.70;;;;;;;20.59;52.48;100452.61;1811659;78;25874;-67
2022/05/31 08:47:03;;;;;;;2.90;2.58;;;;;;;20.36;50.93;100443.08;1820465;78;25271;-67
2022/05/31 08:52:55;;;;;;;5.15;2.42;;;;;;;20.59;53.57;100447.12;1826993;78;25574;-68
2022/05/31 08:58:23;;;;;;;2.10;1.90;;;;;;;21.12;50.61;100448.93;1696916;84;26466;-67
2022/05/31 09:00:53;;;;;;;3.72;2.00;;;;;;;21.09;49.22;100454.59;1697884;84;25595;-68
2022/05/31 09:03:28;;;;;;;3.22;2.58;;;;;;;21.09;48.25;100465.58;1714629;83;25803;-70
2022/05/31 09:06:02;;;;;;;3.62;2.45;;;;;;;21.18;47.51;100458.41;1679746;84;25689;-68
2022/05/31 09:08:45;;;;;;;4.62;2.30;;;;;;;21.31;49.90;100462.47;1697623;84;28371;-69
2022/05/31 09:11:25;;;;;;;2.12;1.92;;;;;;;21.61;47.24;100456.89;1692693;83;25827;-68
2022/05/31 09:14:09;;;;;;;3.15;1.92;;;;;;;21.93;47.85;100472.88;1696798;84;25458;-68
2022/05/31 09:17:03;;;;;;;3.08;2.00;;;;;;;21.95;46.51;100471.13;1679805;84;25714;-69
2022/05/31 09:19:47;;;;;;;1.82;1.72;;;;;;;21.80;46.39;100471.59;1696505;84;25788;-68
2022/05/31 09:22:15;;;;;;;5.20;2.10;;;;;;;21.64;45.96;100477.37;1697475;84;28157;-69
2022/05/31 09:24:46;;;;;;;6.00;3.08;;;;;;;21.15;46.38;100463.31;1698463;84;25714;-68
2022/05/31 09:27:19;;;;;;;5.15;2.55;;;;;;;20.94;46.95;100468.75;1697359;84;25730;-68
2022/05/31 09:30:26;;;;;;;4.78;2.25;;;;;;;21.07;47.89;100468.70;1696724;84;25941;-68
2022/05/31 09:33:22;;;;;;;4.30;2.15;;;;;;;21.05;47.59;100465.55;1745093;80;25682;-69
2022/05/31 09:36:21;;;;;;;2.52;2.33;;;;;;;20.83;46.88;100464.52;1789659;80;27624;-69
2022/05/31 09:38:51;;;;;;;;;;;;;;;20.60;47.04;100461.86;1799939;78;25715;-68
2022/05/31 09:41:32;;;;;;;3.80;1.95;;;;;;;20.30;46.77;100468.12;1768642;80;25566;-68
2022/05/31 09:44:09;;;;;;;3.30;1.70;;;;;;;20.45;46.08;100467.74;1794733;79;25666;-68
2022/05/31 09:47:02;;;;;;;2.00;1.80;;;;;;;20.54;47.60;100459.22;1795098;79;25599;-68
2022/05/31 09:49:46;;;;;;;2.15;1.95;;;;;;;20.48;47.05;100463.45;1787855;79;28218;-68
2022/05/31 09:52:45;;;;;;;4.10;2.00;;;;;;;20.58;47.46;100460.05;1783743;80;25641;-69
2022/05/31 09:58:27;;;;;;;2.60;1.98;;;;;;;21.96;46.52;100469.94;1798295;79;25641;-67
2022/05/31 10:01:09;;;;;;;3.62;1.90;;;;;;;22.40;44.53;100477.33;1765039;79;25588;-68
2022/05/31 10:03:40;;;;;;;2.33;1.70;;;;;;;21.98;43.14;100476.66;1783779;80;27446;-68
2022/05/31 10:06:20;;;;;;;2.45;1.90;;;;;;;21.51;44.00;100466.44;1794869;79;25713;-67
2022/05/31 10:08:51;;;;;;;1.98;1.82;;;;;;;21.31;44.03;100469.94;1824582;78;25699;-68
2022/05/31 10:11:44;;;;;;;2.52;1.80;;;;;;;21.12;44.37;100464.84;1805489;78;25640;-68
2022/05/31 10:14:16;;;;;;;4.50;1.80;;;;;;;21.03;44.76;100465.73;1782444;80;25644;-68
2022/05/31 10:16:42;;;;;;;3.80;1.70;;;;;;;20.88;45.21;100461.43;1796566;78;28220;-69
2022/05/31 10:19:28;;;;;;;3.52;2.08;;;;;;;21.05;46.66;100464.17;1820658;78;25831;-65
2022/05/31 10:21:56;;;;;;;3.22;1.85;;;;;;;21.46;45.59;100464.78;1781029;80;25615;-65
2022/05/31 10:24:29;;;;;;;3.03;1.60;;;;;;;21.90;44.00;100459.88;1764795;80;26167;-68
2022/05/31 10:27:15;;;;;;;1.98;1.40;;;;;;;22.23;45.70;100464.22;1815819;78;25461;-66
2022/05/31 10:29:55;;;;;;;1.95;1.70;;;;;;;22.68;42.33;100475.88;1813978;78;27458;-67
2022/05/31 10:32:34;;;;;;;1.55;1.40;;;;;;;22.55;41.26;100472.09;1786651;79;25783;-66
2022/05/31 10:35:10;;;;;;;;;;;;;;;22.70;42.07;100464.69;1805316;78;26231;-66
2022/05/31 10:37:40;;;;;;;1.72;1.37;;;;;;;22.84;41.07;100466.70;1828915;78;27688;-66
2022/05/31 10:40:11;;;;;;;2.85;1.50;;;;;;;22.89;40.90;100465.55;1777799;79;25687;-66
2022/05/31 10:42:42;;;;;;;2.60;1.60;;;;;;;23.09;41.49;100464.05;1738639;81;27462;-68
2022/05/31 10:45:15;;;;;;;2.50;1.60;;;;;;;23.34;42.13;100457.78;1789893;80;25360;-65
2022/05/31 10:47:41;;;;;;;1.77;1.32;;;;;;;23.67;40.74;100464.91;1769686;80;25707;-66
2022/05/31 10:50:33;;;;;;;2.05;1.27;;;;;;;23.77;40.30;100455.06;1775932;80;25748;-65
2022/05/31 10:53:17;;;;;;;2.10;1.55;;;;;;;24.07;38.16;100459.98;1665101;84;25748;-65
2022/05/31 10:55:51;;;;;;;1.52;1.35;;;;;;;24.07;39.53;100453.08;1685639;83;28258;-65
2022/05/31 10:58:46;;;;;;;2.05;1.62;;;;;;;24.47;40.42;100447.64;1676203;83;28727;-65
2022/05/31 11:01:41;;;;;;;1.62;1.50;;;;;;;24.98;40.43;100446.85;1700039;83;25728;-65
2022/05/31 11:04:22;;;;;;;2.70;1.70;;;;;;;25.14;37.90;100449.12;1661135;86;25681;-66
2022/05/31 11:07:03;;;;;;;4.28;1.77;;;;;;;24.42;36.49;100461.28;1664345;86;25771;-66
2022/05/31 11:12:52;;;;;;;3.67;1.45;;;;;;;23.58;38.62;100451.30;1676155;83;27370;-65
2022/05/31 11:15:46;;;;;;;1.65;1.35;;;;;;;24.04;38.55;100454.64;1698661;83;25732;-67
2022/05/31 11:18:36;;;;;;;2.90;1.47;;;;;;;24.57;38.95;100447.45;1664331;86;25771;-66
2022/05/31 11:21:26;;;;;;;2.12;1.27;;;;;;;25.10;37.20;100446.98;1659763;86;25589;-65
2022/05/31 11:24:20;;;;;;;2.72;1.82;;;;;;;25.05;33.74;100455.11;1668218;86;27499;-66
2022/05/31 11:27:04;;;;;;;2.10;1.22;;;;;;;24.69;35.02;100448.95;1634284;87;25732;-66
2022/05/31 11:30:08;;;;;;;1.60;1.50;;;;;;;24.81;34.75;100445.75;1663201;86;25642;-65
2022/05/31 11:32:56;;;;;;;13.28;12.37;;;;;;;24.68;34.65;100448.77;1654102;85;25804;-66
2022/05/31 11:35:34;;;;;;;3.98;2.55;;;;;;;24.75;36.27;100442.60;1639223;87;25801;-66
2022/05/31 11:38:28;;;;;;;1.57;1.47;;;;;;;24.40;35.17;100443.53;1648132;87;27940;-65
2022/05/31 11:41:08;;;;;;;3.42;1.60;;;;;;;23.80;35.05;100444.61;1648554;87;25987;-65
2022/05/31 11:44:09;;;;;;;4.20;1.40;;;;;;;23.50;36.82;100443.02;1648778;87;25869;-64
2022/05/31 11:46:47;;;;;;;1.75;1.50;;;;;;;23.82;37.19;100438.69;1648617;87;25829;-64
2022/05/31 11:49:38;;;;;;;2.30;1.60;;;;;;;24.04;35.77;100444.41;1646152;87;26428;-66
2022/05/31 11:52:25;;;;;;;3.52;1.40;;;;;;;24.09;36.46;100441.81;1611615;88;27591;-65
2022/05/31 11:58:15;;;;;;;2.10;1.60;;;;;;;24.43;35.89;100431.65;1625554;87;25693;-65
2022/05/31 12:01:06;;;;;;;1.60;1.50;;;;;;;24.75;35.48;100433.53;1662522;86;25519;-65
2022/05/31 12:04:01;;;;;;;2.20;1.82;;;;;;;24.78;34.71;100440.42;1653192;86;25991;-66
2022/05/31 12:06:47;;;;;;;1.60;1.47;;;;;;;24.63;34.80;100434.77;1655753;86;27566;-66
2022/05/31 12:09:26;;;;;;;2.90;1.42;;;;;;;24.85;34.44;100441.59;1648214;86;25902;-66
2022/05/31 12:12:10;;;;;;;2.37;1.22;;;;;;;24.75;33.50;100424.63;1651344;86;25546;-64
2022/05/31 12:14:41;;;;;;;2.75;1.52;;;;;;;24.62;33.54;100434.59;1656640;86;25685;-64
2022/05/31 12:17:08;;;;;;;4.30;1.65;;;;;;;24.41;34.19;100427.90;1648238;86;25516;-64
2022/05/31 12:20:01;;;;;;;9.38;6.33;;;;;;;24.34;34.41;100418.86;1650576;86;28049;-65
2022/05/31 12:22:38;;;;;;;4.00;1.75;;;;;;;24.40;34.81;100420.81;1647662;86;25770;-65